sensor_id;sensor_type;location;lat;lon;timestamp;pressure;altitude;pressure_sealevel;temperature;humidity
65897;BME280;52677;50.898;10.854;2023-01-09T00:01:30;96750.78;;;4.99;100.00
65897;BME280;52677;50.898;10.854;2023-01-09T00:03:31;96747.63;;;4.94;100.00
65897;BME280;52677;50.898;10.854;2023-01-09T00:05:31;96740.56;;;4.96;100.00
65897;BME280;52677;50.898;10.854;2023-01-09T00:07:31;96741.75;;;4.95;100.00
65897;BME280;52677;50.898;10.854;2023-01-09T00:09:32;96727.66;;;4.93;100.00
65897;BME280;52677;50.898;10.854;2023-01-09T00:11:32;96727.66;;;4.93;100.00
65897;BME280;52677;50.898;10.854;2023-01-09T00:13:35;96718.66;;;4.93;100.00
65897;BME280;52677;50.898;10.854;2023-01-09T00:15:35;96724.13;;;4.93;100.00
65897;BME280;52677;50.898;10.854;2023-01-09T00:17:37;96727.66;;;4.90;100.00
65897;BME280;52677;50.898;10.854;2023-01-09T00:19:37;96726.44;;;4.87;100.00
65897;BME280;52677;50.898;10.854;2023-01-09T00:21:38;96731.91;;;4.84;100.00
65897;BME280;52677;50.898;10.854;2023-01-09T00:23:39;96709.59;;;4.85;100.00
65897;BME280;52677;50.898;10.854;2023-01-09T00:25:40;96704.91;;;4.86;100.00
65897;BME280;52677;50.898;10.854;2023-01-09T00:27:40;96706.88;;;4.85;100.00
65897;BME280;52677;50.898;10.854;2023-01-09T00:29:41;96717.00;;;4.77;100.00
65897;BME280;52677;50.898;10.854;2023-01-09T00:31:41;96711.06;;;4.65;100.00
65897;BME280;52677;50.898;10.854;2023-01-09T00:33:44;96721.59;;;4.59;100.00
65897;BME280;52677;50.898;10.854;2023-01-09T00:35:44;96712.94;;;4.54;100.00
65897;BME280;52677;50.898;10.854;2023-01-09T00:37:45;96708.16;;;4.43;100.00
65897;BME280;52677;50.898;10.854;2023-01-09T00:39:45;96712.84;;;4.39;100.00
65897;BME280;52677;50.898;10.854;2023-01-09T00:41:48;96712.41;;;4.34;100.00
65897;BME280;52677;50.898;10.854;2023-01-09T00:43:54;96700.63;;;4.30;100.00
65897;BME280;52677;50.898;10.854;2023-01-09T00:45:56;96694.75;;;4.28;100.00
65897;BME280;52677;50.898;10.854;2023-01-09T00:48:03;96694.00;;;4.31;100.00
65897;BME280;52677;50.898;10.854;2023-01-09T00:50:11;96700.69;;;4.37;100.00
65897;BME280;52677;50.898;10.854;2023-01-09T00:52:14;96694.41;;;4.36;100.00
65897;BME280;52677;50.898;10.854;2023-01-09T00:54:16;96689.03;;;4.47;100.00
65897;BME280;52677;50.898;10.854;2023-01-09T00:56:17;96683.22;;;4.59;100.00
65897;BME280;52677;50.898;10.854;2023-01-09T00:58:18;96698.22;;;4.79;100.00
65897;BME280;52677;50.898;10.854;2023-01-09T01:00:19;96690.47;;;4.92;100.00
65897;BME280;52677;50.898;10.854;2023-01-09T01:02:19;96703.81;;;5.04;100.00
65897;BME280;52677;50.898;10.854;2023-01-09T01:04:20;96699.16;;;5.12;100.00
65897;BME280;52677;50.898;10.854;2023-01-09T01:06:38;96700.72;;;5.10;100.00
65897;BME280;52677;50.898;10.854;2023-01-09T01:08:57;96704.28;;;5.17;100.00
65897;BME280;52677;50.898;10.854;2023-01-09T01:11:05;96699.19;;;5.16;100.00
65897;BME280;52677;50.898;10.854;2023-01-09T01:13:08;96705.84;;;5.15;100.00
65897;BME280;52677;50.898;10.854;2023-01-09T01:15:09;96703.06;;;5.11;100.00
65897;BME280;52677;50.898;10.854;2023-01-09T01:17:10;96702.69;;;5.09;100.00
65897;BME280;52677;50.898;10.854;2023-01-09T01:19:10;96696.78;;;5.03;100.00
65897;BME280;52677;50.898;10.854;2023-01-09T01:21:12;96698.72;;;4.99;100.00
65897;BME280;52677;50.898;10.854;2023-01-09T01:23:13;96701.06;;;4.97;100.00
65897;BME280;52677;50.898;10.854;2023-01-09T01:25:15;96696.38;;;4.98;100.00
65897;BME280;52677;50.898;10.854;2023-01-09T01:27:16;96697.16;;;4.98;100.00
65897;BME280;52677;50.898;10.854;2023-01-09T01:29:16;96703.44;;;5.02;100.00
65897;BME280;52677;50.898;10.854;2023-01-09T01:31:18;96697.19;;;5.05;100.00
65897;BME280;52677;50.898;10.854;2023-01-09T01:33:18;96692.84;;;5.04;100.00
65897;BME280;52677;50.898;10.854;2023-01-09T01:35:19;96698.38;;;5.12;100.00
65897;BME280;52677;50.898;10.854;2023-01-09T01:37:19;96689.78;;;5.17;100.00
65897;BME280;52677;50.898;10.854;2023-01-09T01:39:21;96684.34;;;5.24;100.00
65897;BME280;52677;50.898;10.854;2023-01-09T01:41:22;96688.25;;;5.26;100.00
65897;BME280;52677;50.898;10.854;2023-01-09T01:43:48;96681.97;;;5.29;100.00
65897;BME280;52677;50.898;10.854;2023-01-09T01:45:49;96677.69;;;5.28;100.00
65897;BME280;52677;50.898;10.854;2023-01-09T01:48:06;96682.78;;;5.30;100.00
65897;BME280;52677;50.898;10.854;2023-01-09T01:50:17;96666.72;;;5.35;100.00
65897;BME280;52677;50.898;10.854;2023-01-09T01:52:19;96665.56;;;5.36;100.00
65897;BME280;52677;50.898;10.854;2023-01-09T01:54:23;96659.72;;;5.38;100.00
65897;BME280;52677;50.898;10.854;2023-01-09T01:56:35;96665.94;;;5.35;100.00
65897;BME280;52677;50.898;10.854;2023-01-09T01:58:44;96646.34;;;5.33;100.00
65897;BME280;52677;50.898;10.854;2023-01-09T02:00:46;96656.16;;;5.30;100.00
65897;BME280;52677;50.898;10.854;2023-01-09T02:02:47;96644.75;;;5.28;100.00
65897;BME280;52677;50.898;10.854;2023-01-09T02:04:48;96649.09;;;5.26;100.00
65897;BME280;52677;50.898;10.854;2023-01-09T02:06:52;96652.22;;;5.24;100.00
65897;BME280;52677;50.898;10.854;2023-01-09T02:08:54;96650.63;;;5.20;100.00
65897;BME280;52677;50.898;10.854;2023-01-09T02:10:55;96641.63;;;5.23;100.00
65897;BME280;52677;50.898;10.854;2023-01-09T02:12:55;96637.34;;;5.22;100.00
65897;BME280;52677;50.898;10.854;2023-01-09T02:15:03;96634.97;;;5.24;100.00
65897;BME280;52677;50.898;10.854;2023-01-09T02:17:09;96638.13;;;5.22;100.00
65897;BME280;52677;50.898;10.854;2023-01-09T02:31:12;96613.88;;;5.39;100.00
65897;BME280;52677;50.898;10.854;2023-01-09T02:33:36;96604.47;;;5.40;100.00
65897;BME280;52677;50.898;10.854;2023-01-09T02:40:22;96601.72;;;5.47;100.00
65897;BME280;52677;50.898;10.854;2023-01-09T02:42:24;96597.41;;;5.49;100.00
65897;BME280;52677;50.898;10.854;2023-01-09T02:44:28;96603.31;;;5.55;100.00
65897;BME280;52677;50.898;10.854;2023-01-09T02:46:29;96589.97;;;5.53;100.00
65897;BME280;52677;50.898;10.854;2023-01-09T02:48:30;96600.56;;;5.55;100.00
65897;BME280;52677;50.898;10.854;2023-01-09T02:50:50;96601.75;;;5.57;100.00
65897;BME280;52677;50.898;10.854;2023-01-09T03:02:51;96590.00;;;5.64;100.00
65897;BME280;52677;50.898;10.854;2023-01-09T03:07:13;96586.84;;;5.69;100.00
65897;BME280;52677;50.898;10.854;2023-01-09T03:09:19;96564.09;;;5.61;100.00
65897;BME280;52677;50.898;10.854;2023-01-09T03:11:25;96566.09;;;5.64;100.00
65897;BME280;52677;50.898;10.854;2023-01-09T03:13:31;96568.41;;;5.62;100.00
65897;BME280;52677;50.898;10.854;2023-01-09T03:15:34;96569.22;;;5.63;100.00
65897;BME280;52677;50.898;10.854;2023-01-09T03:17:42;96571.16;;;5.66;100.00
65897;BME280;52677;50.898;10.854;2023-01-09T03:19:45;96562.53;;;5.68;100.00
65897;BME280;52677;50.898;10.854;2023-01-09T03:21:46;96567.22;;;5.71;100.00
65897;BME280;52677;50.898;10.854;2023-01-09T03:23:56;96563.72;;;5.63;100.00
65897;BME280;52677;50.898;10.854;2023-01-09T03:25:56;96564.09;;;5.61;100.00
65897;BME280;52677;50.898;10.854;2023-01-09T03:28:02;96566.88;;;5.65;100.00
65897;BME280;52677;50.898;10.854;2023-01-09T03:30:04;96556.25;;;5.71;100.00
65897;BME280;52677;50.898;10.854;2023-01-09T03:32:04;96560.59;;;5.72;100.00
65897;BME280;52677;50.898;10.854;2023-01-09T03:34:05;96565.66;;;5.70;100.00
65897;BME280;52677;50.898;10.854;2023-01-09T03:36:06;96569.19;;;5.70;100.00
65897;BME280;52677;50.898;10.854;2023-01-09T03:38:06;96562.53;;;5.68;100.00
65897;BME280;52677;50.898;10.854;2023-01-09T03:40:08;96569.19;;;5.70;100.00
65897;BME280;52677;50.898;10.854;2023-01-09T03:42:08;96552.75;;;5.74;100.00
65897;BME280;52677;50.898;10.854;2023-01-09T03:44:08;96555.47;;;5.70;100.00
65897;BME280;52677;50.898;10.854;2023-01-09T03:46:09;96558.63;;;5.65;100.00
65897;BME280;52677;50.898;10.854;2023-01-09T03:48:09;96557.84;;;5.61;100.00
65897;BME280;52677;50.898;10.854;2023-01-09T03:50:10;96549.22;;;5.55;100.00
65897;BME280;52677;50.898;10.854;2023-01-09T03:52:10;96558.59;;;5.54;100.00
65897;BME280;52677;50.898;10.854;2023-01-09T03:54:13;96559.41;;;5.58;100.00
65897;BME280;52677;50.898;10.854;2023-01-09T03:56:13;96545.31;;;5.56;100.00
65897;BME280;52677;50.898;10.854;2023-01-09T03:58:14;96555.88;;;5.61;100.00
65897;BME280;52677;50.898;10.854;2023-01-09T04:00:15;96555.88;;;5.65;100.00
65897;BME280;52677;50.898;10.854;2023-01-09T04:02:16;96549.63;;;5.64;100.00
65897;BME280;52677;50.898;10.854;2023-01-09T04:04:16;96542.94;;;5.66;100.00
65897;BME280;52677;50.898;10.854;2023-01-09T04:06:16;96533.56;;;5.63;100.00
65897;BME280;52677;50.898;10.854;2023-01-09T04:08:17;96539.03;;;5.67;100.00
65897;BME280;52677;50.898;10.854;2023-01-09T04:10:18;96544.13;;;5.68;100.00
65897;BME280;52677;50.898;10.854;2023-01-09T04:12:18;96547.25;;;5.74;100.00
65897;BME280;52677;50.898;10.854;2023-01-09T04:14:19;96544.13;;;5.75;100.00
65897;BME280;52677;50.898;10.854;2023-01-09T04:16:19;96540.56;;;5.78;100.00
65897;BME280;52677;50.898;10.854;2023-01-09T04:18:20;96536.25;;;5.84;100.00
65897;BME280;52677;50.898;10.854;2023-01-09T04:20:20;96540.97;;;5.87;100.00
65897;BME280;52677;50.898;10.854;2023-01-09T04:22:21;96537.47;;;5.90;100.00
65897;BME280;52677;50.898;10.854;2023-01-09T04:24:21;96537.47;;;5.94;100.00
65897;BME280;52677;50.898;10.854;2023-01-09T04:26:21;96530.78;;;5.95;100.00
65897;BME280;52677;50.898;10.854;2023-01-09T04:28:22;96528.44;;;5.97;100.00
65897;BME280;52677;50.898;10.854;2023-01-09T04:30:22;96530.41;;;5.93;100.00
65897;BME280;52677;50.898;10.854;2023-01-09T04:32:22;96526.47;;;5.94;100.00
65897;BME280;52677;50.898;10.854;2023-01-09T04:34:23;96530.03;;;5.91;100.00
65897;BME280;52677;50.898;10.854;2023-01-09T04:36:24;96523.72;;;5.87;100.00
65897;BME280;52677;50.898;10.854;2023-01-09T04:38:25;96528.44;;;5.90;100.00
65897;BME280;52677;50.898;10.854;2023-01-09T04:40:26;96525.69;;;5.94;100.00
65897;BME280;52677;50.898;10.854;2023-01-09T04:42:27;96525.31;;;5.91;100.00
65897;BME280;52677;50.898;10.854;2023-01-09T04:44:27;96519.41;;;5.93;100.00
65897;BME280;52677;50.898;10.854;2023-01-09T04:46:27;96526.88;;;5.93;100.00
65897;BME280;52677;50.898;10.854;2023-01-09T04:48:28;96533.16;;;5.93;100.00
65897;BME280;52677;50.898;10.854;2023-01-09T04:50:28;96547.66;;;5.97;100.00
65897;BME280;52677;50.898;10.854;2023-01-09T04:52:29;96533.91;;;6.01;100.00
65897;BME280;52677;50.898;10.854;2023-01-09T04:54:29;96524.09;;;6.03;100.00
65897;BME280;52677;50.898;10.854;2023-01-09T04:56:30;96532.34;;;6.03;100.00
65897;BME280;52677;50.898;10.854;2023-01-09T04:58:30;96526.84;;;6.03;100.00
65897;BME280;52677;50.898;10.854;2023-01-09T05:00:30;96539.00;;;6.02;100.00
65897;BME280;52677;50.898;10.854;2023-01-09T05:02:31;96535.47;;;6.09;100.00
65897;BME280;52677;50.898;10.854;2023-01-09T05:04:31;96552.34;;;6.07;100.00
65897;BME280;52677;50.898;10.854;2023-01-09T05:06:32;96547.63;;;6.08;100.00
65897;BME280;52677;50.898;10.854;2023-01-09T05:08:33;96553.91;;;6.12;100.00
65897;BME280;52677;50.898;10.854;2023-01-09T05:10:33;96564.09;;;6.11;100.00
65897;BME280;52677;50.898;10.854;2023-01-09T05:12:34;96562.13;;;6.12;100.00
65897;BME280;52677;50.898;10.854;2023-01-09T05:14:35;96568.03;;;6.14;100.00
65897;BME280;52677;50.898;10.854;2023-01-09T05:16:35;96577.84;;;6.15;100.00
65897;BME280;52677;50.898;10.854;2023-01-09T05:18:36;96564.88;;;6.23;100.00
65897;BME280;52677;50.898;10.854;2023-01-09T05:20:36;96575.06;;;6.29;100.00
65897;BME280;52677;50.898;10.854;2023-01-09T05:22:37;96577.78;;;6.40;100.00
65897;BME280;52677;50.898;10.854;2023-01-09T05:24:37;96573.44;;;6.42;100.00
65897;BME280;52677;50.898;10.854;2023-01-09T05:26:37;96586.75;;;6.51;100.00
65897;BME280;52677;50.898;10.854;2023-01-09T05:28:38;96585.56;;;6.59;100.00
65897;BME280;52677;50.898;10.854;2023-01-09T05:30:38;96602.03;;;6.59;100.00
65897;BME280;52677;50.898;10.854;2023-01-09T05:32:39;96604.81;;;6.63;100.00
65897;BME280;52677;50.898;10.854;2023-01-09T05:34:39;96596.16;;;6.54;100.00
65897;BME280;52677;50.898;10.854;2023-01-09T05:36:39;96606.00;;;6.51;100.00
65897;BME280;52677;50.898;10.854;2023-01-09T05:38:40;96607.97;;;6.54;100.00
65897;BME280;52677;50.898;10.854;2023-01-09T05:40:40;96615.41;;;6.50;100.00
65897;BME280;52677;50.898;10.854;2023-01-09T05:42:42;96619.75;;;6.44;100.00
65897;BME280;52677;50.898;10.854;2023-01-09T05:44:42;96619.38;;;6.38;100.00
65897;BME280;52677;50.898;10.854;2023-01-09T05:46:43;96626.41;;;6.43;100.00
65897;BME280;52677;50.898;10.854;2023-01-09T05:48:43;96634.69;;;6.46;100.00
65897;BME280;52677;50.898;10.854;2023-01-09T05:50:44;96627.59;;;6.49;100.00
65897;BME280;52677;50.898;10.854;2023-01-09T05:52:44;96639.38;;;6.46;100.00
65897;BME280;52677;50.898;10.854;2023-01-09T05:54:44;96644.09;;;6.42;100.00
65897;BME280;52677;50.898;10.854;2023-01-09T05:56:45;96648.41;;;6.36;100.00
65897;BME280;52677;50.898;10.854;2023-01-09T05:58:45;96647.63;;;6.32;100.00
65897;BME280;52677;50.898;10.854;2023-01-09T06:00:46;96646.47;;;6.33;100.00
65897;BME280;52677;50.898;10.854;2023-01-09T06:02:47;96643.72;;;6.26;100.00
65897;BME280;52677;50.898;10.854;2023-01-09T06:04:47;96637.03;;;6.19;100.00
65897;BME280;52677;50.898;10.854;2023-01-09T06:06:48;96646.47;;;6.18;100.00
65897;BME280;52677;50.898;10.854;2023-01-09T06:08:48;96646.47;;;6.15;100.00
65897;BME280;52677;50.898;10.854;2023-01-09T06:10:49;96653.13;;;6.10;100.00
65897;BME280;52677;50.898;10.854;2023-01-09T06:12:50;96650.38;;;6.10;100.00
65897;BME280;52677;50.898;10.854;2023-01-09T06:14:50;96660.97;;;6.12;100.00
65897;BME280;52677;50.898;10.854;2023-01-09T06:16:51;96654.72;;;6.08;100.00
65897;BME280;52677;50.898;10.854;2023-01-09T06:18:51;96649.63;;;6.13;100.00
65897;BME280;52677;50.898;10.854;2023-01-09T06:20:51;96645.69;;;6.18;100.00
65897;BME280;52677;50.898;10.854;2023-01-09T06:22:52;96659.03;;;6.23;100.00
65897;BME280;52677;50.898;10.854;2023-01-09T06:24:52;96659.03;;;6.23;100.00
65897;BME280;52677;50.898;10.854;2023-01-09T06:26:52;96655.50;;;6.30;100.00
65897;BME280;52677;50.898;10.854;2023-01-09T06:28:53;96666.47;;;6.26;100.00
65897;BME280;52677;50.898;10.854;2023-01-09T06:30:56;96676.28;;;6.24;100.00
65897;BME280;52677;50.898;10.854;2023-01-09T06:32:57;96679.44;;;6.29;100.00
65897;BME280;52677;50.898;10.854;2023-01-09T06:34:57;96691.97;;;6.41;100.00
65897;BME280;52677;50.898;10.854;2023-01-09T06:36:57;96699.41;;;6.37;100.00
65897;BME280;52677;50.898;10.854;2023-01-09T06:38:58;96716.28;;;6.42;100.00
65897;BME280;52677;50.898;10.854;2023-01-09T06:40:58;96722.16;;;6.44;100.00
65897;BME280;52677;50.898;10.854;2023-01-09T06:42:58;96724.56;;;6.46;100.00
65897;BME280;52677;50.898;10.854;2023-01-09T06:44:59;96717.47;;;6.48;100.00
65897;BME280;52677;50.898;10.854;2023-01-09T06:46:59;96720.22;;;6.38;100.00
65897;BME280;52677;50.898;10.854;2023-01-09T06:48:59;96727.28;;;6.32;100.00
65897;BME280;52677;50.898;10.854;2023-01-09T06:51:00;96737.09;;;6.26;100.00
65897;BME280;52677;50.898;10.854;2023-01-09T06:53:00;96739.06;;;6.22;100.00
65897;BME280;52677;50.898;10.854;2023-01-09T06:55:01;96751.22;;;6.17;100.00
65897;BME280;52677;50.898;10.854;2023-01-09T06:57:01;96743.75;;;6.17;100.00
65897;BME280;52677;50.898;10.854;2023-01-09T06:59:02;96749.22;;;6.10;100.00
65897;BME280;52677;50.898;10.854;2023-01-09T07:01:02;96745.72;;;6.06;100.00
65897;BME280;52677;50.898;10.854;2023-01-09T07:03:03;96769.22;;;6.04;100.00
65897;BME280;52677;50.898;10.854;2023-01-09T07:05:04;96767.66;;;5.99;100.00
65897;BME280;52677;50.898;10.854;2023-01-09T07:07:07;96758.22;;;5.93;100.00
65897;BME280;52677;50.898;10.854;2023-01-09T07:09:07;96767.97;;;5.87;100.00
65897;BME280;52677;50.898;10.854;2023-01-09T07:11:12;96771.94;;;5.89;100.00
65897;BME280;52677;50.898;10.854;2023-01-09T07:13:12;96767.97;;;5.83;100.00
65897;BME280;52677;50.898;10.854;2023-01-09T07:15:13;96790.72;;;5.84;100.00
65897;BME280;52677;50.898;10.854;2023-01-09T07:17:13;96789.13;;;5.76;100.00
65897;BME280;52677;50.898;10.854;2023-01-09T07:19:13;96789.91;;;5.73;100.00
65897;BME280;52677;50.898;10.854;2023-01-09T07:21:14;96798.13;;;5.69;100.00
65897;BME280;52677;50.898;10.854;2023-01-09T07:23:14;96788.31;;;5.68;100.00
65897;BME280;52677;50.898;10.854;2023-01-09T07:25:14;96790.66;;;5.66;99.86
65897;BME280;52677;50.898;10.854;2023-01-09T07:27:15;96795.38;;;5.66;100.00
65897;BME280;52677;50.898;10.854;2023-01-09T07:29:15;96781.63;;;5.58;100.00
65897;BME280;52677;50.898;10.854;2023-01-09T07:31:15;96784.75;;;5.60;99.56
65897;BME280;52677;50.898;10.854;2023-01-09T07:33:16;96800.44;;;5.60;99.64
65897;BME280;52677;50.898;10.854;2023-01-09T07:35:16;96798.44;;;5.53;99.99
65897;BME280;52677;50.898;10.854;2023-01-09T07:37:17;96803.53;;;5.51;100.00
65897;BME280;52677;50.898;10.854;2023-01-09T07:39:18;96800.00;;;5.47;100.00
65897;BME280;52677;50.898;10.854;2023-01-09T07:41:18;96797.22;;;5.44;100.00
65897;BME280;52677;50.898;10.854;2023-01-09T07:43:19;96807.03;;;5.45;100.00
65897;BME280;52677;50.898;10.854;2023-01-09T07:45:19;96797.22;;;5.40;100.00
65897;BME280;52677;50.898;10.854;2023-01-09T07:47:20;96819.56;;;5.39;100.00
65897;BME280;52677;50.898;10.854;2023-01-09T07:49:20;96807.38;;;5.36;99.41
65897;BME280;52677;50.898;10.854;2023-01-09T07:51:20;96815.59;;;5.32;100.00
65897;BME280;52677;50.898;10.854;2023-01-09T07:53:21;96816.34;;;5.26;99.85
65897;BME280;52677;50.898;10.854;2023-01-09T07:55:21;96824.56;;;5.26;100.00
65897;BME280;52677;50.898;10.854;2023-01-09T07:57:21;96814.41;;;5.30;98.99
65897;BME280;52677;50.898;10.854;2023-01-09T07:59:22;96819.47;;;5.28;99.29
65897;BME280;52677;50.898;10.854;2023-01-09T08:01:22;96827.72;;;5.28;99.50
65897;BME280;52677;50.898;10.854;2023-01-09T08:03:23;96825.34;;;5.23;99.44
65897;BME280;52677;50.898;10.854;2023-01-09T08:05:23;96828.09;;;5.23;99.60
65897;BME280;52677;50.898;10.854;2023-01-09T08:07:23;96847.28;;;5.23;99.84
65897;BME280;52677;50.898;10.854;2023-01-09T08:09:24;96852.75;;;5.23;99.15
65897;BME280;52677;50.898;10.854;2023-01-09T08:11:25;96862.13;;;5.18;99.75
65897;BME280;52677;50.898;10.854;2023-01-09T08:13:25;96864.06;;;5.18;99.77
65897;BME280;52677;50.898;10.854;2023-01-09T08:15:25;96858.28;;;5.30;99.13
65897;BME280;52677;50.898;10.854;2023-01-09T08:17:26;96862.59;;;5.31;99.39
65897;BME280;52677;50.898;10.854;2023-01-09T08:19:26;96858.66;;;5.28;99.23
65897;BME280;52677;50.898;10.854;2023-01-09T08:21:26;96864.19;;;5.32;99.20
65897;BME280;52677;50.898;10.854;2023-01-09T08:23:27;96860.28;;;5.36;98.86
65897;BME280;52677;50.898;10.854;2023-01-09T08:25:27;96858.75;;;5.39;98.24
65897;BME280;52677;50.898;10.854;2023-01-09T08:27:28;96856.75;;;5.36;98.32
65897;BME280;52677;50.898;10.854;2023-01-09T08:29:28;96854.44;;;5.38;97.99
65897;BME280;52677;50.898;10.854;2023-01-09T08:31:29;96854.47;;;5.49;97.39
65897;BME280;52677;50.898;10.854;2023-01-09T08:33:29;96870.09;;;5.41;97.25
65897;BME280;52677;50.898;10.854;2023-01-09T08:35:31;96874.78;;;5.37;97.46
65897;BME280;52677;50.898;10.854;2023-01-09T08:37:31;96875.53;;;5.34;97.10
65897;BME280;52677;50.898;10.854;2023-01-09T08:39:32;96876.31;;;5.31;98.04
65897;BME280;52677;50.898;10.854;2023-01-09T08:41:32;96894.69;;;5.27;98.37
65897;BME280;52677;50.898;10.854;2023-01-09T08:43:51;96885.69;;;5.26;97.83
65897;BME280;52677;50.898;10.854;2023-01-09T08:46:18;96886.47;;;5.27;97.01
65897;BME280;52677;50.898;10.854;2023-01-09T08:48:38;96894.31;;;5.28;96.49
65897;BME280;52677;50.898;10.854;2023-01-09T08:50:39;96898.59;;;5.26;96.30
65897;BME280;52677;50.898;10.854;2023-01-09T08:52:39;96903.69;;;5.27;95.71
65897;BME280;52677;50.898;10.854;2023-01-09T08:54:39;96908.41;;;5.27;95.57
65897;BME280;52677;50.898;10.854;2023-01-09T08:56:40;96905.66;;;5.23;95.57
65897;BME280;52677;50.898;10.854;2023-01-09T08:58:40;96908.81;;;5.29;94.99
65897;BME280;52677;50.898;10.854;2023-01-09T09:00:41;96912.81;;;5.39;93.12
65897;BME280;52677;50.898;10.854;2023-01-09T09:02:41;96913.59;;;5.39;94.27
65897;BME280;52677;50.898;10.854;2023-01-09T09:04:42;96915.13;;;5.36;94.27
65897;BME280;52677;50.898;10.854;2023-01-09T09:06:42;96919.38;;;5.27;94.69
65897;BME280;52677;50.898;10.854;2023-01-09T09:08:42;96918.97;;;5.25;94.76
65897;BME280;52677;50.898;10.854;2023-01-09T09:10:43;96922.50;;;5.29;94.81
65897;BME280;52677;50.898;10.854;2023-01-09T09:12:43;96935.09;;;5.37;94.21
65897;BME280;52677;50.898;10.854;2023-01-09T09:14:46;96928.88;;;5.40;94.82
65897;BME280;52677;50.898;10.854;2023-01-09T09:17:06;96939.06;;;5.43;95.55
65897;BME280;52677;50.898;10.854;2023-01-09T09:19:06;96931.66;;;5.47;95.20
65897;BME280;52677;50.898;10.854;2023-01-09T09:21:07;96934.03;;;5.49;95.54
65897;BME280;52677;50.898;10.854;2023-01-09T09:23:07;96930.50;;;5.52;95.35
65897;BME280;52677;50.898;10.854;2023-01-09T09:25:07;96934.53;;;5.65;93.55
65897;BME280;52677;50.898;10.854;2023-01-09T09:27:08;96929.03;;;5.69;93.51
65897;BME280;52677;50.898;10.854;2023-01-09T09:29:09;96923.59;;;5.76;93.44
65897;BME280;52677;50.898;10.854;2023-01-09T09:31:09;96924.03;;;5.81;93.65
65897;BME280;52677;50.898;10.854;2023-01-09T09:33:09;96919.72;;;5.87;92.42
65897;BME280;52677;50.898;10.854;2023-01-09T09:35:10;96924.84;;;5.89;91.96
65897;BME280;52677;50.898;10.854;2023-01-09T09:37:11;96928.03;;;5.91;92.35
65897;BME280;52677;50.898;10.854;2023-01-09T09:39:11;96943.75;;;6.01;91.64
65897;BME280;52677;50.898;10.854;2023-01-09T09:44:22;96937.91;;;6.10;90.92
65897;BME280;52677;50.898;10.854;2023-01-09T09:48:43;96948.94;;;6.13;91.71
65897;BME280;52677;50.898;10.854;2023-01-09T09:53:09;96946.59;;;6.26;92.42
65897;BME280;52677;50.898;10.854;2023-01-09T09:55:17;96956.44;;;6.31;91.62
65897;BME280;52677;50.898;10.854;2023-01-09T09:57:22;96949.00;;;6.31;91.07
65897;BME280;52677;50.898;10.854;2023-01-09T09:59:28;96954.50;;;6.42;91.34
65897;BME280;52677;50.898;10.854;2023-01-09T10:01:43;96961.56;;;6.39;91.70
65897;BME280;52677;50.898;10.854;2023-01-09T10:03:48;96954.50;;;6.35;92.87
65897;BME280;52677;50.898;10.854;2023-01-09T10:05:50;96960.75;;;6.35;92.96
65897;BME280;52677;50.898;10.854;2023-01-09T10:07:52;96964.69;;;6.31;94.04
65897;BME280;52677;50.898;10.854;2023-01-09T10:09:59;96962.34;;;6.29;93.50
65897;BME280;52677;50.898;10.854;2023-01-09T10:14:09;96985.44;;;6.21;93.23
65897;BME280;52677;50.898;10.854;2023-01-09T10:18:34;96980.72;;;6.18;94.72
65897;BME280;52677;50.898;10.854;2023-01-09T10:20:46;96980.72;;;6.18;94.88
65897;BME280;52677;50.898;10.854;2023-01-09T10:25:30;96979.53;;;6.15;95.48
65897;BME280;52677;50.898;10.854;2023-01-09T10:38:39;97007.75;;;6.12;93.29
65897;BME280;52677;50.898;10.854;2023-01-09T10:40:49;97005.78;;;6.09;93.35
65897;BME280;52677;50.898;10.854;2023-01-09T10:42:54;97004.59;;;6.10;93.05
65897;BME280;52677;50.898;10.854;2023-01-09T10:45:16;96998.72;;;6.08;93.93
65897;BME280;52677;50.898;10.854;2023-01-09T10:47:38;97000.66;;;6.04;94.59
65897;BME280;52677;50.898;10.854;2023-01-09T10:49:40;97001.03;;;6.03;95.48
65897;BME280;52677;50.898;10.854;2023-01-09T10:51:51;96986.13;;;6.00;95.27
65897;BME280;52677;50.898;10.854;2023-01-09T10:53:56;96996.69;;;5.98;95.89
65897;BME280;52677;50.898;10.854;2023-01-09T10:56:03;96996.25;;;5.93;96.29
65897;BME280;52677;50.898;10.854;2023-01-09T10:58:19;96995.88;;;5.94;96.34
65897;BME280;52677;50.898;10.854;2023-01-09T11:00:22;96988.78;;;5.89;95.68
65897;BME280;52677;50.898;10.854;2023-01-09T11:02:29;96994.69;;;5.91;96.18
65897;BME280;52677;50.898;10.854;2023-01-09T11:04:36;96991.56;;;5.93;95.91
65897;BME280;52677;50.898;10.854;2023-01-09T11:06:49;96982.94;;;5.95;95.80
65897;BME280;52677;50.898;10.854;2023-01-09T11:08:55;96991.22;;;6.02;95.45
65897;BME280;52677;50.898;10.854;2023-01-09T11:10:58;96984.94;;;6.01;96.66
65897;BME280;52677;50.898;10.854;2023-01-09T11:13:34;96991.59;;;6.00;96.27
65897;BME280;52677;50.898;10.854;2023-01-09T11:15:33;96991.22;;;6.02;96.42
65897;BME280;52677;50.898;10.854;2023-01-09T11:17:34;96987.28;;;6.03;96.00
65897;BME280;52677;50.898;10.854;2023-01-09T11:19:34;96984.94;;;6.01;95.85
65897;BME280;52677;50.898;10.854;2023-01-09T11:21:38;96996.31;;;6.03;95.57
65897;BME280;52677;50.898;10.854;2023-01-09T11:23:40;96987.72;;;6.05;94.56
65897;BME280;52677;50.898;10.854;2023-01-09T11:25:54;96986.53;;;6.09;94.34
65897;BME280;52677;50.898;10.854;2023-01-09T11:32:22;96975.59;;;6.13;94.16
65897;BME280;52677;50.898;10.854;2023-01-09T11:34:27;96979.53;;;6.15;93.91
65897;BME280;52677;50.898;10.854;2023-01-09T11:36:28;96981.44;;;6.11;94.06
65897;BME280;52677;50.898;10.854;2023-01-09T11:38:32;96971.69;;;6.14;94.49
65897;BME280;52677;50.898;10.854;2023-01-09T11:40:48;96981.44;;;6.11;94.79
65897;BME280;52677;50.898;10.854;2023-01-09T11:43:17;96970.84;;;6.10;94.32